Time;durP1;ratioP1;P1;durP2;ratioP2;P2;SDS_P1;SDS_P2;PMS_P1;PMS_P2;Temp;Humidity;BMP_temperature;BMP_pressure;BME280_temperature;BME280_humidity;BME280_pressure;Samples;Min_cycle;Max_cycle;Signal;HPM_P1;HPM_P2
2024/02/27 00:01:53;;;;;;;47.70;33.30;;;;;;;10.44;94.44;99578.19;103478;1253;97007;-79
2024/02/27 00:04:21;;;;;;;49.10;34.90;;;;;;;10.43;94.30;99578.58;103352;1253;106365;-79
2024/02/27 00:06:49;;;;;;;47.70;34.90;;;;;;;10.40;94.66;99577.64;103258;1254;138347;-79
2024/02/27 00:09:18;;;;;;;48.50;35.10;;;;;;;10.38;94.56;99574.45;103330;1257;108606;-79
2024/02/27 00:11:45;;;;;;;45.50;33.50;;;;;;;10.35;94.64;99581.85;103243;1253;138047;-79
2024/02/27 00:14:13;;;;;;;46.30;33.10;;;;;;;10.34;94.92;99582.95;103446;1257;96989;-79
2024/02/27 00:16:41;;;;;;;45.20;34.30;;;;;;;10.32;95.16;99581.83;103401;1254;108013;-79
2024/02/27 00:19:08;;;;;;;51.90;34.20;;;;;;;10.29;95.50;99582.47;103270;1258;138962;-79
2024/02/27 00:21:36;;;;;;;47.40;33.70;;;;;;;10.26;95.58;99581.57;103371;1253;110708;-79
2024/02/27 00:24:03;;;;;;;43.70;32.20;;;;;;;10.24;95.65;99582.17;103236;1253;138601;-78
2024/02/27 00:26:30;;;;;;;48.20;34.00;;;;;;;10.21;96.24;99587.29;103397;1253;96841;-78
2024/02/27 00:28:57;;;;;;;49.40;32.90;;;;;;;10.19;96.37;99596.38;103309;1256;138943;-77
2024/02/27 00:31:24;;;;;;;49.50;34.80;;;;;;;10.17;96.00;99595.08;103381;1253;96472;-78
2024/02/27 00:33:51;;;;;;;49.50;34.10;;;;;;;10.14;96.49;99595.21;103475;1253;109665;-77
2024/02/27 00:36:18;;;;;;;48.70;32.90;;;;;;;10.12;96.39;99604.33;103262;1253;138471;-77
2024/02/27 00:38:45;;;;;;;52.50;34.00;;;;;;;10.10;96.24;99603.91;103394;1253;96349;-78
2024/02/27 00:41:12;;;;;;;52.70;33.60;;;;;;;10.07;96.61;99606.96;103306;1257;138773;-76
2024/02/27 00:43:39;;;;;;;45.50;33.80;;;;;;;10.05;96.91;99598.89;103373;1253;96459;-77
2024/02/27 00:46:06;;;;;;;48.20;33.20;;;;;;;10.03;96.62;99600.54;103456;1254;109720;-77
2024/02/27 00:48:34;;;;;;;47.20;33.80;;;;;;;10.00;96.49;99602.55;103265;1253;138947;-76
2024/02/27 00:51:01;;;;;;;48.00;32.40;;;;;;;9.97;96.88;99603.00;103453;1257;96528;-75
2024/02/27 00:53:29;;;;;;;49.70;32.80;;;;;;;9.96;96.93;99603.60;103271;1253;138269;-77
2024/02/27 00:55:56;;;;;;;45.70;33.00;;;;;;;9.94;97.25;99613.41;103366;1257;96358;-77
2024/02/27 00:58:24;;;;;;;46.30;32.80;;;;;;;9.91;97.32;99618.02;103378;1257;110693;-77
2024/02/27 01:00:52;;;;;;;47.60;32.80;;;;;;;9.88;97.31;99616.41;103275;1257;138197;-79
2024/02/27 01:03:19;;;;;;;45.80;33.10;;;;;;;9.86;97.18;99617.71;103318;1253;96557;-78
2024/02/27 01:05:47;;;;;;;49.20;32.40;;;;;;;9.83;97.43;99619.02;103318;1257;138052;-78
2024/02/27 01:08:14;;;;;;;48.30;33.30;;;;;;;9.81;97.65;99619.65;103325;1254;96330;-79
2024/02/27 01:10:41;;;;;;;48.40;33.10;;;;;;;9.78;97.72;99627.91;103379;1253;110862;-79
2024/02/27 01:13:08;;;;;;;50.40;33.20;;;;;;;9.76;97.89;99623.64;103164;1256;138126;-79
2024/02/27 01:15:35;;;;;;;46.20;33.40;;;;;;;9.73;98.04;99624.13;103325;1254;96445;-80
2024/02/27 01:18:03;;;;;;;45.40;33.20;;;;;;;9.67;98.04;99622.09;103145;1258;138040;-78
2024/02/27 01:20:30;;;;;;;46.50;33.30;;;;;;;9.67;98.28;99625.02;103332;1254;96745;-78
2024/02/27 01:22:57;;;;;;;47.40;33.20;;;;;;;9.63;98.45;99621.67;103278;1254;138431;-73
2024/02/27 01:25:24;;;;;;;50.80;33.60;;;;;;;9.61;98.62;99624.75;103289;1256;108400;-78
2024/02/27 01:27:51;;;;;;;47.80;33.00;;;;;;;9.58;98.36;99622.25;103335;1258;96337;-78
2024/02/27 01:30:18;;;;;;;46.80;32.50;;;;;;;9.56;98.87;99628.24;103192;1258;138113;-78
2024/02/27 01:32:45;;;;;;;47.20;33.60;;;;;;;9.52;99.12;99623.16;104592;1254;94538;-78
2024/02/27 01:35:17;;;;;;;46.70;32.80;;;;;;;9.50;98.97;99632.09;103362;1254;138665;-77
2024/02/27 01:37:46;;;;;;;46.70;32.60;;;;;;;9.48;99.03;99630.61;103222;1254;107425;-77
2024/02/27 01:40:14;;;;;;;45.20;33.00;;;;;;;9.46;99.21;99637.81;103388;1254;97004;-78
2024/02/27 01:42:45;;;;;;;46.30;32.80;;;;;;;9.43;99.17;99638.46;103413;1258;138153;-77
2024/02/27 01:45:21;;;;;;;51.80;33.80;;;;;;;9.39;99.39;99638.59;103435;1258;96346;-77
2024/02/27 01:47:49;;;;;;;44.30;32.80;;;;;;;9.36;99.43;99641.67;103255;1256;137255;-78
2024/02/27 01:50:17;;;;;;;47.30;32.20;;;;;;;9.34;99.42;99642.09;103163;1258;108303;-78
2024/02/27 01:52:45;;;;;;;49.10;31.80;;;;;;;9.31;99.38;99647.02;103190;1259;96456;-77
2024/02/27 01:55:13;;;;;;;45.60;32.00;;;;;;;9.28;99.80;99647.81;103180;1255;137889;-77
2024/02/27 01:57:41;;;;;;;45.30;31.40;;;;;;;9.25;99.81;99651.77;103228;1254;96442;-78
2024/02/27 02:00:11;;;;;;;44.80;31.90;;;;;;;9.23;99.97;99649.76;103213;1254;138252;-77
2024/02/27 02:02:43;;;;;;;46.00;32.80;;;;;;;9.20;100.00;99652.30;103451;1254;107827;-78
2024/02/27 02:05:11;;;;;;;48.70;33.00;;;;;;;9.17;100.00;99649.46;103574;1254;138439;-77
2024/02/27 02:07:39;;;;;;;43.90;31.00;;;;;;;9.14;99.99;99647.13;104464;1254;106835;-78
2024/02/27 02:10:10;;;;;;;43.60;31.10;;;;;;;9.10;99.98;99647.63;103833;1255;96473;-77
2024/02/27 02:12:37;;;;;;;45.20;32.30;;;;;;;9.09;100.00;99648.18;103293;1254;138483;-78
2024/02/27 02:15:05;;;;;;;47.10;32.90;;;;;;;9.06;100.00;99651.56;103747;1254;106712;-78
2024/02/27 02:17:33;;;;;;;48.90;32.20;;;;;;;9.05;100.00;99653.17;103385;1255;138409;-78
2024/02/27 02:20:04;;;;;;;47.30;33.00;;;;;;;9.03;100.00;99651.17;104164;1255;107133;-77
2024/02/27 02:22:32;;;;;;;47.00;32.40;;;;;;;9.01;100.00;99647.42;103369;1256;97214;-76
2024/02/27 02:24:59;;;;;;;47.50;33.30;;;;;;;8.99;100.00;99652.36;103381;1258;138434;-78
2024/02/27 02:27:28;;;;;;;49.50;32.90;;;;;;;8.98;100.00;99652.73;103443;1254;108290;-77
2024/02/27 02:29:56;;;;;;;45.20;32.30;;;;;;;8.95;100.00;99648.29;103217;1254;138207;-79
2024/02/27 02:32:23;;;;;;;48.50;32.70;;;;;;;8.93;100.00;99655.15;103250;1254;108541;-77
2024/02/27 02:34:50;;;;;;;48.50;33.50;;;;;;;8.91;100.00;99662.00;103603;1254;96500;-76
2024/02/27 02:37:17;;;;;;;50.10;32.60;;;;;;;8.88;100.00;99665.90;103477;1257;110788;-75
2024/02/27 02:39:44;;;;;;;49.60;32.60;;;;;;;8.86;100.00;99664.08;103328;1254;107682;-77
2024/02/27 02:42:12;;;;;;;44.70;32.10;;;;;;;8.84;100.00;99668.14;103495;1256;138428;-78
2024/02/27 02:44:39;;;;;;;45.40;32.50;;;;;;;8.82;100.00;99665.96;103547;1254;108301;-80
2024/02/27 02:47:06;;;;;;;43.70;31.80;;;;;;;8.78;100.00;99662.42;103320;1258;138778;-77
2024/02/27 02:49:33;;;;;;;47.80;32.30;;;;;;;8.78;100.00;99663.98;103294;1255;109918;-76
2024/02/27 02:52:05;;;;;;;45.80;32.00;;;;;;;8.73;100.00;99658.95;103401;1259;107308;-77
2024/02/27 02:54:32;;;;;;;45.40;32.50;;;;;;;8.73;100.00;99659.49;103604;1253;138285;-76
2024/02/27 02:57:00;;;;;;;51.30;33.70;;;;;;;8.71;100.00;99662.33;103374;1253;107515;-78
2024/02/27 02:59:27;;;;;;;47.00;32.20;;;;;;;8.69;100.00;99663.77;103241;1256;140453;-78
2024/02/27 03:01:55;;;;;;;49.70;33.30;;;;;;;8.68;100.00;99665.40;103301;1254;109903;-78
2024/02/27 03:04:22;;;;;;;48.40;32.90;;;;;;;8.66;100.00;99663.20;103275;1259;107794;-77
2024/02/27 03:06:49;;;;;;;47.80;32.20;;;;;;;8.64;100.00;99663.27;103172;1256;138987;-77
2024/02/27 03:09:18;;;;;;;49.40;32.80;;;;;;;8.63;100.00;99665.05;103351;1259;108189;-74
2024/02/27 03:11:49;;;;;;;46.00;31.40;;;;;;;8.59;100.00;99664.45;103112;1254;138597;-76
2024/02/27 03:14:16;;;;;;;50.50;32.70;;;;;;;8.58;100.00;99671.06;103274;1254;111031;-77
2024/02/27 03:16:44;;;;;;;50.10;32.40;;;;;;;8.56;100.00;99668.36;103986;1254;107126;-77
2024/02/27 03:19:11;;;;;;;49.20;32.50;;;;;;;8.55;100.00;99674.14;103291;1258;138164;-77
2024/02/27 03:21:39;;;;;;;45.70;31.50;;;;;;;8.53;100.00;99679.39;103415;1256;107810;-78
2024/02/27 03:24:07;;;;;;;51.70;32.20;;;;;;;8.52;100.00;99683.77;103388;1256;138427;-77
2024/02/27 03:26:34;;;;;;;47.80;32.80;;;;;;;8.51;100.00;99689.36;104359;1255;112123;-77
2024/02/27 03:29:01;;;;;;;48.20;33.50;;;;;;;8.49;100.00;99691.14;103722;1255;138331;-78
2024/02/27 03:31:28;;;;;;;50.10;32.10;;;;;;;8.47;100.00;99695.18;103348;1254;96349;-77
2024/02/27 03:33:55;;;;;;;43.10;30.70;;;;;;;8.45;100.00;99693.34;103292;1258;107688;-75
2024/02/27 03:36:22;;;;;;;49.10;32.20;;;;;;;8.44;100.00;99694.59;103493;1256;138951;-76
2024/02/27 03:38:49;;;;;;;45.00;31.90;;;;;;;8.43;100.00;99689.59;103294;1258;110472;-77
2024/02/27 03:41:19;;;;;;;50.00;32.70;;;;;;;8.42;100.00;99691.70;103124;1256;138983;-76
2024/02/27 03:43:46;;;;;;;47.40;32.10;;;;;;;8.38;100.00;99691.46;103320;1255;96424;-76
2024/02/27 03:46:13;;;;;;;49.70;31.80;;;;;;;8.38;100.00;99692.02;103511;1256;107464;-76
2024/02/27 03:48:40;;;;;;;51.00;33.50;;;;;;;8.36;100.00;99700.04;103177;1253;138621;-77
2024/02/27 03:51:08;;;;;;;45.80;32.40;;;;;;;8.33;100.00;99695.63;103543;1255;109000;-76
2024/02/27 03:53:35;;;;;;;47.50;32.90;;;;;;;8.32;100.00;99702.75;103459;1256;138765;-76
2024/02/27 03:56:04;;;;;;;50.80;32.90;;;;;;;8.31;100.00;99705.20;102537;1254;1003473;-77
2024/02/27 03:58:30;;;;;;;48.10;32.90;;;;;;;8.30;100.00;99707.83;103270;1258;107683;-76
2024/02/27 04:00:58;;;;;;;44.80;31.60;;;;;;;8.29;100.00;99707.17;103322;1256;138452;-76
2024/02/27 04:03:25;;;;;;;48.60;32.60;;;;;;;8.28;100.00;99706.50;103342;1257;110229;-77
2024/02/27 04:05:52;;;;;;;51.70;33.40;;;;;;;8.28;100.00;99702.89;103256;1254;138532;-77
2024/02/27 04:08:20;;;;;;;46.90;32.00;;;;;;;8.25;100.00;99698.12;103233;1257;96451;-76
2024/02/27 04:10:47;;;;;;;47.10;32.10;;;;;;;8.28;100.00;99695.97;103212;1256;107535;-77
2024/02/27 04:13:15;;;;;;;46.60;32.90;;;;;;;8.28;100.00;99699.08;103123;1255;138495;-77
2024/02/27 04:15:44;;;;;;;44.80;32.60;;;;;;;8.26;100.00;99700.67;103218;1256;109278;-77
2024/02/27 04:18:11;;;;;;;46.80;32.60;;;;;;;8.26;100.00;99700.70;103128;1253;138386;-77
2024/02/27 04:20:38;;;;;;;49.20;33.90;;;;;;;8.26;100.00;99705.02;103683;1253;96374;-78
2024/02/27 04:23:05;;;;;;;48.40;32.10;;;;;;;8.25;100.00;99701.21;103547;1253;137078;-77
2024/02/27 04:25:33;;;;;;;50.90;32.60;;;;;;;8.24;100.00;99699.16;103236;1255;96467;-78
2024/02/27 04:28:00;;;;;;;48.20;33.50;;;;;;;8.24;100.00;99695.52;103159;1255;110136;-77
2024/02/27 04:30:27;;;;;;;50.90;34.10;;;;;;;8.24;100.00;99698.13;103077;1254;138157;-78
2024/02/27 04:32:54;;;;;;;49.20;33.20;;;;;;;8.24;100.00;99692.60;103179;1256;96343;-77
2024/02/27 04:35:21;;;;;;;49.90;33.50;;;;;;;8.23;100.00;99694.17;103138;1256;138145;-76
2024/02/27 04:37:48;;;;;;;49.30;33.80;;;;;;;8.22;100.00;99691.27;103188;1254;96493;-78
2024/02/27 04:40:15;;;;;;;49.70;33.40;;;;;;;8.22;100.00;99691.61;103147;1254;109650;-75
2024/02/27 04:42:42;;;;;;;45.90;32.70;;;;;;;8.22;100.00;99696.80;103157;1259;138221;-77
2024/02/27 04:45:10;;;;;;;49.00;32.90;;;;;;;8.22;100.00;99695.78;103246;1258;96346;-75
2024/02/27 04:47:37;;;;;;;48.20;32.10;;;;;;;8.21;100.00;99694.59;103327;1254;138667;-75
2024/02/27 04:50:05;;;;;;;49.50;33.40;;;;;;;8.18;100.00;99688.46;103301;1256;96499;-77
2024/02/27 04:52:32;;;;;;;49.70;33.40;;;;;;;8.21;100.00;99700.84;103222;1254;109478;-76
2024/02/27 04:54:59;;;;;;;49.50;33.10;;;;;;;8.21;100.00;99700.66;103449;1256;138424;-76
2024/02/27 04:57:26;;;;;;;46.20;32.80;;;;;;;8.21;100.00;99701.69;103427;1254;96447;-76
2024/02/27 04:59:53;;;;;;;52.70;32.80;;;;;;;8.21;100.00;99702.20;103261;1256;138362;-76
2024/02/27 05:02:21;;;;;;;48.80;33.30;;;;;;;8.21;100.00;99713.12;103145;1256;96449;-75
2024/02/27 05:04:48;;;;;;;46.80;32.60;;;;;;;8.20;100.00;99716.78;103463;1257;110447;-77
2024/02/27 05:07:16;;;;;;;49.10;33.70;;;;;;;8.18;100.00;99717.54;103217;1258;138294;-76
2024/02/27 05:09:43;;;;;;;48.30;32.90;;;;;;;8.17;100.00;99721.55;103443;1255;96549;-76
2024/02/27 05:12:10;;;;;;;50.00;32.70;;;;;;;8.15;100.00;99724.05;103461;1256;139307;-76
2024/02/27 05:14:37;;;;;;;47.50;33.70;;;;;;;8.12;100.00;99727.43;103938;1258;94521;-76
2024/02/27 05:17:04;;;;;;;49.80;33.30;;;;;;;8.10;100.00;99732.52;103256;1254;138503;-75
2024/02/27 05:19:31;;;;;;;46.90;32.60;;;;;;;8.07;100.00;99736.93;103389;1258;107085;-77
2024/02/27 05:21:59;;;;;;;54.10;34.20;;;;;;;8.06;100.00;99735.77;103618;1254;96353;-77
2024/02/27 05:24:26;;;;;;;50.30;33.50;;;;;;;8.03;100.00;99735.13;103175;1256;138067;-78
2024/02/27 05:26:53;;;;;;;48.80;35.00;;;;;;;8.00;100.00;99740.43;103442;1256;96493;-77
2024/02/27 05:29:20;;;;;;;53.40;34.50;;;;;;;8.00;100.00;99743.73;103189;1256;139369;-67
2024/02/27 05:31:47;;;;;;;44.80;32.90;;;;;;;8.03;100.00;99748.30;103996;1254;107573;-66
2024/02/27 05:34:14;;;;;;;49.10;32.70;;;;;;;8.07;100.00;99746.10;103770;1258;96893;-66
2024/02/27 05:36:41;;;;;;;45.80;33.30;;;;;;;8.12;100.00;99753.07;103166;1256;138585;-76
2024/02/27 05:39:09;;;;;;;48.80;33.60;;;;;;;8.12;100.00;99756.70;103224;1258;96438;-77
2024/02/27 05:41:36;;;;;;;53.40;33.70;;;;;;;8.09;100.00;99762.33;103335;1255;138209;-77
2024/02/27 05:44:04;;;;;;;45.20;32.80;;;;;;;8.04;100.00;99764.02;103206;1256;108641;-77
2024/02/27 05:46:31;;;;;;;50.80;33.10;;;;;;;8.04;100.00;99775.10;103370;1256;97065;-76
2024/02/27 05:48:59;;;;;;;47.80;33.50;;;;;;;8.02;100.00;99779.31;103563;1256;138053;-77
2024/02/27 05:51:26;;;;;;;50.70;34.00;;;;;;;8.02;100.00;99778.64;103491;1256;96473;-78
2024/02/27 05:53:53;;;;;;;50.10;33.20;;;;;;;8.00;100.00;99784.06;103244;1256;138553;-78
2024/02/27 05:56:21;;;;;;;48.90;32.80;;;;;;;7.99;100.00;99784.44;103643;1256;107245;-77
2024/02/27 05:58:49;;;;;;;46.80;33.80;;;;;;;7.99;100.00;99779.27;103385;1254;96522;-77
2024/02/27 06:01:17;;;;;;;46.60;34.10;;;;;;;7.98;100.00;99782.38;103518;1254;138219;-78
2024/02/27 06:03:45;;;;;;;49.20;32.70;;;;;;;7.99;100.00;99783.92;103327;1258;96488;-77
2024/02/27 06:06:13;;;;;;;48.50;33.10;;;;;;;7.99;100.00;99781.67;103996;1256;138066;-77
2024/02/27 06:08:40;;;;;;;50.30;34.60;;;;;;;7.99;100.00;99782.01;103500;1257;109709;-74
2024/02/27 06:11:07;;;;;;;50.40;34.60;;;;;;;8.00;100.00;99784.06;103091;1254;138698;-75
2024/02/27 06:13:34;;;;;;;49.70;34.80;;;;;;;8.01;100.00;99787.84;103606;1254;106952;-75
2024/02/27 06:16:01;;;;;;;49.90;34.30;;;;;;;8.02;100.00;99787.30;103863;1256;96354;-75
2024/02/27 06:18:28;;;;;;;52.90;34.10;;;;;;;8.03;100.00;99787.43;102975;1256;138436;-75
2024/02/27 06:23:42;;;;;;;48.90;33.40;;;;;;;8.12;100.00;99789.08;103073;1254;139404;-75
2024/02/27 06:26:13;;;;;;;47.50;32.90;;;;;;;8.16;100.00;99790.34;103252;1257;108631;-75
2024/02/27 06:28:41;;;;;;;52.80;34.00;;;;;;;8.27;100.00;99794.19;103295;1254;96605;-75
2024/02/27 06:31:10;;;;;;;44.60;31.70;;;;;;;8.42;100.00;99793.41;103147;1256;138070;-77
2024/02/27 06:33:36;;;;;;;49.40;31.50;;;;;;;8.57;100.00;99797.61;103815;1256;107090;-78
2024/02/27 06:36:05;;;;;;;49.10;32.10;;;;;;;8.67;100.00;99797.85;103493;1256;138440;-78
2024/02/27 06:38:32;;;;;;;44.80;32.00;;;;;;;8.74;100.00;99806.61;103394;1258;109241;-78
2024/02/27 06:40:59;;;;;;;45.40;31.80;;;;;;;8.79;99.97;99804.02;103280;1258;138401;-79
2024/02/27 06:43:26;;;;;;;44.60;31.20;;;;;;;8.82;99.79;99800.64;103229;1256;109070;-75
2024/02/27 06:45:54;;;;;;;45.30;31.20;;;;;;;8.85;99.25;99808.19;103129;1254;108301;-78
2024/02/27 06:48:21;;;;;;;43.40;30.70;;;;;;;8.84;98.97;99803.36;103219;1256;138269;-78
2024/02/27 06:50:54;;;;;;;44.80;31.30;;;;;;;8.85;98.77;99801.26;103422;1258;138035;-78
2024/02/27 06:53:21;;;;;;;41.90;32.30;;;;;;;8.87;98.53;99801.34;103788;1254;96479;-78
2024/02/27 06:55:49;;;;;;;43.00;31.50;;;;;;;8.95;98.41;99808.89;103245;1257;138247;-78
2024/02/27 06:58:16;;;;;;;42.30;31.60;;;;;;;9.14;97.82;99807.20;103212;1259;108181;-79
2024/02/27 07:00:44;;;;;;;42.60;29.70;;;;;;;9.61;96.84;99811.17;103316;1259;96319;-78
2024/02/27 07:03:11;;;;;;;40.30;29.50;;;;;;;10.15;95.01;99805.41;103129;1253;138296;-83
2024/02/27 07:05:38;;;;;;;40.70;29.00;;;;;;;10.65;93.40;99807.32;104175;1253;96033;-72
2024/02/27 07:08:19;;;;;;;39.80;28.00;;;;;;;11.18;91.60;99808.47;103184;1259;138475;-87
2024/02/27 07:10:46;;;;;;;40.00;28.30;;;;;;;11.30;90.06;99811.96;103234;1253;108312;-86
2024/02/27 07:13:14;;;;;;;39.30;28.60;;;;;;;11.29;89.08;99810.96;103256;1253;97716;-86
2024/02/27 07:15:41;;;;;;;40.30;28.10;;;;;;;11.24;88.80;99811.54;103199;1253;138177;-86
2024/02/27 07:18:09;;;;;;;42.30;28.30;;;;;;;11.15;88.41;99812.77;103335;1253;96334;-85
2024/02/27 07:20:36;;;;;;;43.10;28.40;;;;;;;11.03;88.40;99813.44;103270;1253;138906;-85
2024/02/27 07:23:04;;;;;;;42.30;28.90;;;;;;;11.13;89.06;99812.84;103309;1253;106994;-87
2024/02/27 07:25:31;;;;;;;37.90;28.20;;;;;;;11.53;87.16;99804.88;103827;1253;140256;-83
2024/02/27 07:27:58;;;;;;;42.30;27.50;;;;;;;11.56;86.58;99809.29;103190;1258;107930;-76
2024/02/27 07:30:26;;;;;;;36.30;26.80;;;;;;;11.66;86.38;99811.64;103451;1255;96440;-76
2024/02/27 07:32:53;;;;;;;37.40;27.20;;;;;;;12.25;85.10;99810.06;104376;1258;139587;-75
2024/02/27 07:35:21;;;;;;;33.80;25.90;;;;;;;13.01;83.59;99810.09;103210;1259;107251;-75
2024/02/27 07:37:47;;;;;;;34.90;25.40;;;;;;;13.71;81.84;99801.54;103568;1256;138539;-78
2024/02/27 07:40:16;;;;;;;34.30;26.00;;;;;;;14.37;79.62;99804.46;104564;1256;107626;-79
2024/02/27 07:42:43;;;;;;;33.60;25.40;;;;;;;14.51;78.17;99805.77;103236;1258;96582;-78
2024/02/27 07:45:11;;;;;;;34.50;25.80;;;;;;;14.61;77.79;99809.48;103208;1254;139270;-79
2024/02/27 07:47:38;;;;;;;37.60;24.90;;;;;;;15.24;77.06;99809.85;103152;1259;107286;-78
2024/02/27 07:50:08;;;;;;;31.30;23.90;;;;;;;15.97;72.38;99802.03;103078;1258;139329;-78
2024/02/27 07:52:35;;;;;;;34.60;24.30;;;;;;;16.39;72.05;99803.77;103245;1256;108164;-77
2024/02/27 07:55:03;;;;;;;30.20;23.70;;;;;;;16.42;70.20;99806.94;103218;1259;96566;-79
2024/02/27 07:57:30;;;;;;;34.80;24.90;;;;;;;16.00;71.01;99803.39;103416;1258;138386;-78
2024/02/27 07:59:57;;;;;;;30.20;25.10;;;;;;;15.53;71.40;99804.13;103193;1254;108333;-78
2024/02/27 08:02:27;;;;;;;33.70;25.50;;;;;;;15.11;72.29;99810.83;102936;1255;138368;-78
2024/02/27 08:04:54;;;;;;;31.10;24.90;;;;;;;14.71;72.69;99814.85;103237;1258;107619;-77
2024/02/27 08:07:21;;;;;;;32.20;26.00;;;;;;;14.34;73.21;99814.73;103159;1255;96561;-73
2024/02/27 08:09:48;;;;;;;30.20;24.60;;;;;;;14.00;73.82;99813.62;103405;1255;109954;-82
2024/02/27 08:12:16;;;;;;;36.20;26.60;;;;;;;13.65;74.11;99810.39;103476;1258;106900;-80
2024/02/27 08:14:47;;;;;;;32.60;26.40;;;;;;;13.32;74.99;99808.41;103176;1253;138262;-84
2024/02/27 08:17:14;;;;;;;36.00;25.90;;;;;;;13.13;76.08;99809.69;103390;1253;107867;-81
2024/02/27 08:19:44;;;;;;;33.20;25.60;;;;;;;13.02;76.58;99805.70;103300;1259;138847;-77
2024/02/27 08:22:12;;;;;;;37.40;26.50;;;;;;;12.90;76.77;99804.89;103384;1255;109229;-80
2024/02/27 08:24:39;;;;;;;35.30;26.10;;;;;;;12.79;77.16;99804.94;103296;1260;107223;-83
2024/02/27 08:27:07;;;;;;;37.10;26.20;;;;;;;12.71;77.49;99804.06;103247;1254;138405;-81
2024/02/27 08:29:34;;;;;;;35.10;26.30;;;;;;;12.66;77.99;99805.48;103328;1259;106174;-83
2024/02/27 08:32:01;;;;;;;35.50;25.70;;;;;;;12.72;77.98;99815.52;103525;1259;139276;-86
2024/02/27 08:34:28;;;;;;;32.60;25.60;;;;;;;12.78;78.25;99815.28;103275;1254;110254;-86
2024/02/27 08:36:56;;;;;;;34.90;25.70;;;;;;;12.90;78.39;99811.31;104290;1253;108555;-82
2024/02/27 08:39:23;;;;;;;32.00;25.60;;;;;;;13.15;78.30;99804.53;103704;1258;138503;-81
2024/02/27 08:41:50;;;;;;;33.80;25.40;;;;;;;13.50;78.09;99808.18;103137;1258;106244;-83
2024/02/27 08:44:17;;;;;;;36.30;24.40;;;;;;;13.79;77.90;99809.48;102900;1259;138713;-81
2024/02/27 08:46:45;;;;;;;32.60;23.80;;;;;;;14.01;77.16;99801.86;103039;1258;109664;-81
2024/02/27 08:49:12;;;;;;;34.10;23.90;;;;;;;14.24;76.77;99803.44;103175;1256;107064;-83
2024/02/27 08:51:40;;;;;;;30.30;23.90;;;;;;;14.62;76.30;99804.02;103096;1258;138799;-83
2024/02/27 08:54:07;;;;;;;29.40;23.30;;;;;;;15.17;75.96;99800.13;103195;1255;107438;-83
2024/02/27 08:56:37;;;;;;;28.40;22.20;;;;;;;15.79;74.54;99796.84;103176;1257;137967;-82
2024/02/27 08:59:04;;;;;;;30.20;22.40;;;;;;;15.94;71.91;99806.22;103268;1257;111177;-82
2024/02/27 09:01:31;;;;;;;28.50;21.90;;;;;;;15.75;70.96;99809.19;102938;1258;138142;-73
2024/02/27 09:03:58;;;;;;;31.80;22.50;;;;;;;15.58;71.39;99811.88;103150;1259;96903;-81
2024/02/27 09:06:25;;;;;;;29.50;22.60;;;;;;;15.53;71.35;99815.15;103049;1258;107140;-81
2024/02/27 09:08:52;;;;;;;32.00;21.60;;;;;;;15.78;71.28;99814.03;103015;1259;137815;-82
2024/02/27 09:11:19;;;;;;;31.40;21.20;;;;;;;16.42;69.70;99816.05;103219;1258;111203;-81
2024/02/27 09:13:46;;;;;;;31.20;21.70;;;;;;;16.85;68.31;99812.06;103095;1259;138249;-80
2024/02/27 09:16:14;;;;;;;32.20;20.70;;;;;;;17.23;66.52;99816.98;103234;1259;97372;-81
2024/02/27 09:18:43;;;;;;;27.10;20.80;;;;;;;17.31;65.26;99819.09;103238;1259;105680;-79
2024/02/27 09:21:10;;;;;;;32.40;21.00;;;;;;;17.14;64.67;99815.98;103134;1260;137747;-79
2024/02/27 09:23:37;;;;;;;30.30;20.70;;;;;;;17.17;64.97;99818.05;103194;1260;109710;-82
2024/02/27 09:26:04;;;;;;;27.30;20.90;;;;;;;17.65;64.98;99814.48;103025;1254;137949;-80
2024/02/27 09:28:32;;;;;;;26.50;20.10;;;;;;;17.98;64.14;99816.59;103081;1255;96651;-75
2024/02/27 09:31:02;;;;;;;27.00;21.00;;;;;;;18.05;64.56;99813.86;103176;1258;106865;-78
2024/02/27 09:33:29;;;;;;;25.50;19.70;;;;;;;18.01;63.42;99815.17;103434;1255;137620;-76
2024/02/27 09:35:57;;;;;;;25.60;19.60;;;;;;;18.02;62.53;99815.46;103226;1254;109491;-79
2024/02/27 09:38:24;;;;;;;28.30;20.40;;;;;;;17.99;62.49;99811.81;103122;1256;137658;-82
2024/02/27 09:40:54;;;;;;;27.60;20.70;;;;;;;17.90;61.60;99807.50;103258;1254;97030;-81
2024/02/27 09:43:25;;;;;;;29.90;20.50;;;;;;;17.74;62.04;99804.20;103274;1255;107634;-81
2024/02/27 09:45:52;;;;;;;26.00;20.50;;;;;;;17.71;63.10;99805.16;103319;1260;96436;-81
2024/02/27 09:48:27;;;;;;;28.60;20.50;;;;;;;18.00;62.55;99795.71;103264;1260;109820;-75
2024/02/27 09:50:56;;;;;;;31.00;20.70;;;;;;;18.29;62.29;99801.45;103231;1258;137787;-75
2024/02/27 09:53:24;;;;;;;25.80;20.10;;;;;;;18.78;61.66;99802.29;103198;1254;96476;-74
2024/02/27 09:55:52;;;;;;;25.00;20.30;;;;;;;19.29;59.72;99797.97;102966;1255;137649;-74
2024/02/27 09:58:20;;;;;;;27.10;19.90;;;;;;;19.64;59.32;99796.88;103020;1254;98441;-73
2024/02/27 10:00:48;;;;;;;30.50;20.10;;;;;;;19.88;56.55;99799.45;103107;1259;109800;-75
2024/02/27 10:03:17;;;;;;;26.00;20.00;;;;;;;19.92;56.27;99801.25;103007;1259;138034;-77
2024/02/27 10:05:46;;;;;;;24.60;18.70;;;;;;;19.90;55.85;99805.98;103300;1254;96443;-76
2024/02/27 10:08:18;;;;;;;28.80;20.60;;;;;;;19.91;56.16;99809.59;103089;1254;137580;-72
2024/02/27 10:10:47;;;;;;;25.20;20.00;;;;;;;19.80;56.38;99809.25;103135;1260;96541;-72
2024/02/27 10:13:14;;;;;;;25.50;19.70;;;;;;;19.60;56.01;99807.46;103046;1260;109939;-73
2024/02/27 10:15:41;;;;;;;29.20;21.30;;;;;;;19.31;55.43;99811.55;103025;1259;137574;-69
2024/02/27 10:18:09;;;;;;;28.10;20.30;;;;;;;18.98;55.93;99812.46;103166;1257;96734;-83
2024/02/27 10:20:37;;;;;;;28.30;21.60;;;;;;;18.73;56.36;99819.61;103136;1260;137830;-84
2024/02/27 10:23:05;;;;;;;29.60;20.90;;;;;;;18.66;57.50;99821.99;103194;1256;96465;-80
2024/02/27 10:25:32;;;;;;;26.60;20.20;;;;;;;18.79;57.09;99829.00;102995;1258;137650;-73
2024/02/27 10:28:01;;;;;;;24.40;18.90;;;;;;;18.77;55.74;99829.51;103056;1257;108353;-71
2024/02/27 10:30:29;;;;;;;25.50;17.90;;;;;;;18.71;55.64;99833.27;103627;1255;96561;-70
2024/02/27 10:32:56;;;;;;;23.60;17.40;;;;;;;18.57;55.28;99831.83;103177;1259;137687;-71
2024/02/27 10:35:24;;;;;;;25.80;19.00;;;;;;;18.37;55.87;99827.59;103165;1254;123589;-70
2024/02/27 10:37:52;;;;;;;26.00;19.30;;;;;;;18.16;56.25;99827.00;103853;1254;137889;-70
2024/02/27 10:40:20;;;;;;;28.00;18.70;;;;;;;18.01;56.97;99829.45;103129;1257;107197;-71
2024/02/27 10:42:47;;;;;;;25.80;18.10;;;;;;;17.89;57.71;99830.64;103201;1254;96451;-71
2024/02/27 10:45:15;;;;;;;24.50;18.30;;;;;;;17.80;57.61;99833.04;103074;1261;137521;-70
2024/02/27 10:47:43;;;;;;;23.90;17.80;;;;;;;17.55;57.13;99838.75;103040;1268;96501;-81
2024/02/27 10:50:15;;;;;;;24.60;18.00;;;;;;;17.19;56.92;99837.81;103091;1254;137472;-81
2024/02/27 10:52:44;;;;;;;24.20;17.10;;;;;;;16.87;57.73;99833.54;103390;1259;107790;-81
2024/02/27 10:55:12;;;;;;;23.40;17.80;;;;;;;16.64;58.60;99832.02;103096;1258;96450;-76
2024/02/27 10:57:40;;;;;;;25.20;18.00;;;;;;;16.49;58.86;99833.35;103281;1259;139263;-73
2024/02/27 11:00:10;;;;;;;25.20;17.70;;;;;;;16.36;59.51;99832.93;103388;1255;96611;-77
2024/02/27 11:02:44;;;;;;;23.60;17.40;;;;;;;16.32;59.71;99830.16;103108;1260;137950;-74
2024/02/27 11:05:13;;;;;;;24.10;16.50;;;;;;;16.30;59.82;99830.09;103138;1259;107733;-75
2024/02/27 11:07:40;;;;;;;21.30;16.00;;;;;;;16.23;59.34;99834.59;103060;1259;138510;-77
2024/02/27 11:10:10;;;;;;;22.40;16.20;;;;;;;16.14;59.06;99841.27;103173;1259;107799;-82